KMEI/MEI METAR and TAF weather

Enter ICAO airport designator
Station Type Date Time Source
KMEI METAR 2020/04/04 20:58 UTC NOAA

KMEI 042058Z 25005KT 10SM CLR 24/13 A2995 RMK AO2 SLP138 T02440133 55012


Station Type Date Time Source
KMEI Decoded METAR 2020/04/04 20:58 UTC NOAA

MERIDIAN KEY FIELD, MS, United States (KMEI) 32-20N 088-45W 89M
Apr 04, 2020 - 04:58 PM EDT / 2020.04.04 2058 UTC
Wind: from the WSW (250 degrees) at 6 MPH (5 KT):0
Visibility: 10 mile(s):0
Sky conditions: clear
Temperature: 75.9 F (24.4 C)
Dew Point: 55.9 F (13.3 C)
Relative Humidity: 49%
Pressure (altimeter): 29.95 in. Hg (1014 hPa)
Pressure tendency: 0.04 inches (1.2 hPa) lower than three hours ago
ob: KMEI 042058Z 25005KT 10SM CLR 24/13 A2995 RMK AO2 SLP138 T02440133 55012
cycle: 21

Station Type Date Time Source
KMEI TAF 2020/04/04 18:36 UTC NOAA

TAF KMEI 041732Z 0418/0518 01005KT P6SM BKN100

Example: see airport list